Time;durP1;ratioP1;P1;durP2;ratioP2;P2;SDS_P1;SDS_P2;PMS_P1;PMS_P2;Temp;Humidity;BMP_temperature;BMP_pressure;BME280_temperature;BME280_humidity;BME280_pressure;Samples;Min_cycle;Max_cycle;Signal;HPM_P1;HPM_P2
2022/01/28 00:01:43;;;;;;;;;;;;;;;4.41;67.23;99963.75;4967566;28;1914;-92
2022/01/28 00:04:15;;;;;;;;;;;;;;;4.41;67.19;99982.44;4985852;28;1233;-91
2022/01/28 00:06:41;;;;;;;;;;;;;;;4.41;67.34;99995.75;4970752;28;1847;-91
2022/01/28 00:09:08;;;;;;;;;;;;;;;4.42;67.13;100001.91;4990161;28;1720;-93
2022/01/28 00:11:34;;;;;;;;;;;;;;;4.42;67.21;100018.72;4987372;28;1556;-93
2022/01/28 00:14:12;;;;;;;;;;;;;;;4.42;67.25;100032.06;4960744;28;1158;-93
2022/01/28 00:17:06;;;;;;;;;;;;;;;4.43;67.21;100044.38;4953906;28;1697;-93
2022/01/28 00:20:08;;;;;;;;;;;;;;;4.43;67.15;100055.03;4980049;28;1421;-92
2022/01/28 00:38:50;;;;;;;;;;;;;;;4.43;67.13;100120.88;4972640;28;1590;-91
2022/01/28 00:41:16;;;;;;;;;;;;;;;4.42;67.13;100133.41;4963239;28;1510;-93
2022/01/28 00:43:43;;;;;;;;;;;;;;;4.41;66.93;100142.41;4966769;28;1915;-93
2022/01/28 00:46:09;;;;;;;;;;;;;;;4.40;66.97;100148.75;4989457;28;1310;-92
2022/01/28 00:48:35;;;;;;;;;;;;;;;4.41;67.14;100160.22;4983175;28;1456;-91
2022/01/28 00:51:01;;;;;;;;;;;;;;;4.41;66.71;100176.22;4973580;28;1645;-93
2022/01/28 00:53:28;;;;;;;;;;;;;;;4.41;67.03;100185.09;4965951;28;2095;-93
2022/01/28 00:55:55;;;;;;;;;;;;;;;4.41;66.99;100187.75;4989534;28;1231;-91
2022/01/28 00:58:21;;;;;;;;;;;;;;;4.41;66.99;100203.75;4982441;28;1200;-94
2022/01/28 01:00:47;;;;;;;;;;;;;;;4.40;66.95;100207.41;4986728;28;1710;-92
2022/01/28 01:03:14;;;;;;;;;;;;;;;4.40;67.00;100219.94;4985182;28;2033;-93
2022/01/28 01:05:40;;;;;;;;;;;;;;;4.40;67.18;100235.91;4989018;28;1298;-94
2022/01/28 01:08:06;;;;;;;;;;;;;;;4.39;66.93;100242.28;4982180;28;1707;-93
2022/01/28 01:10:33;;;;;;;;;;;;;;;4.39;66.92;100243.09;4989404;28;1603;-93
2022/01/28 01:12:59;;;;;;;;;;;;;;;4.38;67.11;100249.44;4975370;28;1523;-93
2022/01/28 01:15:30;;;;;;;;;;;;;;;4.38;66.98;100251.28;4979335;28;1256;-93
2022/01/28 01:18:01;;;;;;;;;;;;;;;4.38;67.00;100253.94;4989370;28;1560;-93
2022/01/28 01:23:21;;;;;;;;;;;;;;;4.39;66.90;100283.09;4965545;28;1906;-93
2022/01/28 01:25:51;;;;;;;;;;;;;;;4.39;66.67;100287.59;4987412;28;1192;-93
2022/01/28 01:28:19;;;;;;;;;;;;;;;4.37;66.93;100300.28;4982792;28;1665;-93
2022/01/28 01:30:46;;;;;;;;;;;;;;;4.39;66.98;100304.44;4987776;28;1733;-93
2022/01/28 01:33:13;;;;;;;;;;;;;;;4.38;66.89;100304.59;4962053;28;1509;-92
2022/01/28 01:35:39;;;;;;;;;;;;;;;4.38;67.07;100317.94;4970325;28;1700;-93
2022/01/28 01:38:07;;;;;;;;;;;;;;;4.37;66.99;100327.78;4987615;28;1299;-92
2022/01/28 01:40:40;;;;;;;;;;;;;;;4.37;67.07;100335.78;4982858;28;1577;-91
2022/01/28 01:43:11;;;;;;;;;;;;;;;4.36;67.05;100346.66;4977491;28;2020;-93
2022/01/28 01:45:57;;;;;;;;;;;;;;;4.37;67.16;100353.63;4979592;28;1623;-94
2022/01/28 01:53:53;;;;;;;;;;;;;;;4.35;67.03;100361.78;4962955;28;1672;-93
2022/01/28 01:56:20;;;;;;;;;;;;;;;4.34;66.99;100362.81;4965199;28;1126;-93
2022/01/28 01:58:46;;;;;;;;;;;;;;;4.35;67.10;100368.97;4989411;28;1209;-92
2022/01/28 02:01:13;;;;;;;;;;;;;;;4.32;67.16;100372.81;4977882;28;1748;-92
2022/01/28 02:03:39;;;;;;;;;;;;;;;4.32;66.92;100373.69;4957703;28;1898;-92
2022/01/28 02:06:06;;;;;;;;;;;;;;;4.33;66.79;100387.84;4962860;28;1265;-92
2022/01/28 02:08:32;;;;;;;;;;;;;;;4.33;66.99;100379.84;4979102;28;1512;-92
2022/01/28 02:10:59;;;;;;;;;;;;;;;4.33;66.96;100388.66;4981102;28;2051;-93
2022/01/28 02:13:25;;;;;;;;;;;;;;;4.33;66.96;100391.31;4988203;28;1181;-93
2022/01/28 02:15:53;;;;;;;;;;;;;;;4.35;66.88;100395.63;4975178;28;2001;-91
2022/01/28 02:18:20;;;;;;;;;;;;;;;4.34;66.89;100389.47;4966723;28;1663;-94
2022/01/28 02:20:49;;;;;;;;;;;;;;;4.34;66.87;100402.81;4985828;28;1778;-93
2022/01/28 02:23:15;;;;;;;;;;;;;;;4.33;66.85;100391.31;4978644;28;1907;-93
2022/01/28 02:25:42;;;;;;;;;;;;;;;4.35;66.99;100395.63;4981208;28;1411;-92
2022/01/28 02:28:11;;;;;;;;;;;;;;;4.35;66.71;100407.13;4959196;28;1845;-92
2022/01/28 02:30:37;;;;;;;;;;;;;;;4.36;66.83;100411.47;4964825;28;1652;-93
2022/01/28 02:33:10;;;;;;;;;;;;;;;4.36;66.99;100416.78;4959297;28;1683;-93
2022/01/28 02:35:38;;;;;;;;;;;;;;;4.36;66.98;100429.31;4969352;28;1651;-93
2022/01/28 02:38:04;;;;;;;;;;;;;;;4.36;66.95;100438.13;4986289;28;1883;-93
2022/01/28 02:40:30;;;;;;;;;;;;;;;4.36;66.97;100431.97;4975980;28;2089;-91
2022/01/28 02:43:01;;;;;;;;;;;;;;;4.35;66.92;100435.63;4978713;28;1982;-91
2022/01/28 02:45:33;;;;;;;;;;;;;;;4.36;66.79;100439.97;4978330;28;1405;-91
2022/01/28 02:48:02;;;;;;;;;;;;;;;4.37;66.64;100446.94;4958934;28;1471;-93
2022/01/28 02:50:32;;;;;;;;;;;;;;;4.36;66.79;100450.63;4971459;28;1838;-93
2022/01/28 02:53:08;;;;;;;;;;;;;;;4.34;66.85;100453.47;4971931;28;1681;-91
2022/01/28 02:55:38;;;;;;;;;;;;;;;4.35;66.77;100459.63;4977173;28;1469;-93
2022/01/28 03:00:46;;;;;;;;;;;;;;;4.33;66.87;100487.31;4958936;28;1723;-93
2022/01/28 03:03:13;;;;;;;;;;;;;;;4.35;66.76;100488.97;4982791;28;1914;-93
2022/01/28 03:05:39;;;;;;;;;;;;;;;4.33;66.80;100492.66;4986874;28;1693;-93
2022/01/28 03:08:05;;;;;;;;;;;;;;;4.32;67.11;100496.34;4993105;28;1389;-93
2022/01/28 03:10:42;;;;;;;;;;;;;;;4.32;66.84;100519.47;4960030;28;1497;-93
2022/01/28 03:13:30;;;;;;;;;;;;;;;4.33;66.97;100526.50;4984923;28;1992;-92
2022/01/28 03:16:07;;;;;;;;;;;;;;;4.32;66.85;100533.66;4985596;28;1500;-93
2022/01/28 03:18:42;;;;;;;;;;;;;;;4.31;66.93;100539.16;4977944;28;1228;-92
2022/01/28 03:21:20;;;;;;;;;;;;;;;4.31;66.85;100544.50;4980139;28;1167;-92
2022/01/28 03:23:46;;;;;;;;;;;;;;;4.30;66.85;100550.84;4989477;28;1910;-93
2022/01/28 03:26:13;;;;;;;;;;;;;;;4.29;66.86;100557.16;4988022;28;1559;-93
2022/01/28 03:28:40;;;;;;;;;;;;;;;4.29;66.60;100578.50;4958936;28;1192;-92
2022/01/28 03:31:06;;;;;;;;;;;;;;;4.28;66.73;100584.84;4983648;28;2020;-93
2022/01/28 03:33:32;;;;;;;;;;;;;;;4.29;66.85;100591.81;4995242;28;1639;-93
2022/01/28 03:36:01;;;;;;;;;;;;;;;4.28;66.89;100592.84;4992015;28;1315;-93
2022/01/28 03:38:28;;;;;;;;;;;;;;;4.26;66.97;100598.34;4981994;28;1468;-92
2022/01/28 03:40:56;;;;;;;;;;;;;;;4.26;67.05;100601.00;4961221;28;1715;-93
2022/01/28 03:43:22;;;;;;;;;;;;;;;4.27;66.88;100600.03;4970943;28;1942;-92
2022/01/28 03:45:48;;;;;;;;;;;;;;;4.27;66.83;100604.53;4959077;28;2056;-92
2022/01/28 03:48:15;;;;;;;;;;;;;;;4.26;66.72;100614.34;4969622;28;1790;-92
2022/01/28 03:50:41;;;;;;;;;;;;;;;4.27;66.86;100618.69;4971624;28;1768;-92
2022/01/28 03:53:07;;;;;;;;;;;;;;;4.27;66.80;100628.53;4960410;28;1782;-93
2022/01/28 03:55:34;;;;;;;;;;;;;;;4.26;66.89;100638.34;4959538;28;1840;-92
2022/01/28 03:58:00;;;;;;;;;;;;;;;4.25;66.89;100642.03;4965981;28;2112;-92
2022/01/28 04:00:29;;;;;;;;;;;;;;;4.26;66.90;100650.84;4965966;28;1663;-91
2022/01/28 04:03:05;;;;;;;;;;;;;;;4.27;66.87;100658.69;4956105;28;1927;-92
2022/01/28 04:13:48;;;;;;;;;;;;;;;4.29;66.61;100702.00;4957990;28;1756;-93
2022/01/28 04:16:29;;;;;;;;;;;;;;;4.29;66.59;100704.66;4971167;28;1774;-93
2022/01/28 04:18:56;;;;;;;;;;;;;;;4.33;66.58;100721.16;4955269;28;2045;-93
2022/01/28 04:21:23;;;;;;;;;;;;;;;4.33;66.50;100729.97;4967744;28;1766;-93
2022/01/28 04:23:49;;;;;;;;;;;;;;;4.35;66.40;100739.63;4966119;28;1914;-93
2022/01/28 04:26:15;;;;;;;;;;;;;;;4.33;66.58;100753.16;4953667;28;1771;-93
2022/01/28 04:28:42;;;;;;;;;;;;;;;4.34;66.40;100762.78;4966947;28;1801;-92
2022/01/28 04:31:08;;;;;;;;;;;;;;;4.32;66.65;100770.13;4969997;28;1806;-92
2022/01/28 04:33:34;;;;;;;;;;;;;;;4.35;66.44;100785.78;4960256;28;1822;-93
2022/01/28 04:36:01;;;;;;;;;;;;;;;4.36;66.37;100797.31;4957460;28;1986;-91
2022/01/28 04:38:34;;;;;;;;;;;;;;;4.38;66.22;100800.59;4959946;28;1825;-91
2022/01/28 04:41:08;;;;;;;;;;;;;;;4.37;66.26;100799.78;4964362;28;1828;-91
2022/01/28 04:43:39;;;;;;;;;;;;;;;4.40;66.11;100803.94;4958013;28;1977;-93
2022/01/28 04:46:11;;;;;;;;;;;;;;;4.38;66.10;100804.09;4969446;28;1824;-91
2022/01/28 04:48:44;;;;;;;;;;;;;;;4.39;66.15;100811.13;4975653;28;1747;-93
2022/01/28 04:51:19;;;;;;;;;;;;;;;4.40;66.05;100819.94;4982044;28;1630;-92
2022/01/28 04:53:59;;;;;;;;;;;;;;;4.41;66.14;100818.94;4979040;28;1840;-94
2022/01/28 04:56:42;;;;;;;;;;;;;;;4.42;66.11;100821.44;4969783;28;1790;-93
2022/01/28 04:59:28;;;;;;;;;;;;;;;4.44;65.85;100818.59;4958293;28;1736;-93
2022/01/28 05:10:45;;;;;;;;;;;;;;;4.46;65.83;100819.25;4920679;28;1876;-93
2022/01/28 05:16:37;;;;;;;;;;;;;;;4.49;65.65;100825.06;4965855;28;2179;-91
2022/01/28 05:25:11;;;;;;;;;;;;;;;4.49;65.75;100838.41;4954680;28;2005;-93
2022/01/28 05:27:44;;;;;;;;;;;;;;;4.49;65.70;100843.72;4954542;28;1720;-92
2022/01/28 05:30:10;;;;;;;;;;;;;;;4.50;65.63;100863.22;4957138;28;2052;-92
2022/01/28 05:32:37;;;;;;;;;;;;;;;4.51;65.65;100867.59;4971454;28;1778;-93
2022/01/28 05:35:03;;;;;;;;;;;;;;;4.50;65.68;100877.44;4964286;28;1870;-90
2022/01/28 05:37:29;;;;;;;;;;;;;;;4.49;65.80;100874.91;4965169;28;1802;-93
2022/01/28 05:39:56;;;;;;;;;;;;;;;4.51;65.67;100878.25;4960164;28;1865;-93
2022/01/28 05:42:22;;;;;;;;;;;;;;;4.52;65.60;100887.91;4958830;28;1760;-93
2022/01/28 05:44:49;;;;;;;;;;;;;;;4.48;65.81;100897.28;4959453;28;2018;-93
2022/01/28 05:47:16;;;;;;;;;;;;;;;4.49;65.66;100899.75;4960152;28;1173;-91
2022/01/28 05:49:44;;;;;;;;;;;;;;;4.50;65.62;100903.25;4958909;28;1709;-91
2022/01/28 05:52:10;;;;;;;;;;;;;;;4.51;65.46;100904.94;4974234;28;1973;-92
2022/01/28 05:54:37;;;;;;;;;;;;;;;4.51;65.65;100904.94;4990748;28;1198;-91
2022/01/28 05:57:04;;;;;;;;;;;;;;;4.48;65.83;100915.94;4989404;28;1623;-92
2022/01/28 05:59:30;;;;;;;;;;;;;;;4.50;65.83;100924.59;4972414;28;1726;-91
2022/01/28 06:01:57;;;;;;;;;;;;;;;4.49;65.58;100926.44;4960142;28;1716;-92
2022/01/28 06:04:23;;;;;;;;;;;;;;;4.50;65.71;100938.78;4955911;28;1974;-91
2022/01/28 06:06:49;;;;;;;;;;;;;;;4.46;65.81;100937.44;4957278;28;1820;-93
2022/01/28 06:09:16;;;;;;;;;;;;;;;4.46;65.72;100947.28;4974486;28;2004;-92
2022/01/28 06:11:45;;;;;;;;;;;;;;;4.48;65.65;100954.13;4978936;28;2134;-92
2022/01/28 06:14:11;;;;;;;;;;;;;;;4.48;65.71;100953.28;4968364;28;1682;-92
2022/01/28 06:16:38;;;;;;;;;;;;;;;4.45;65.56;100962.47;4965007;28;1773;-92
2022/01/28 06:19:04;;;;;;;;;;;;;;;4.45;65.74;100958.97;4965211;28;1806;-92
2022/01/28 06:21:30;;;;;;;;;;;;;;;4.42;65.76;100957.47;4954214;28;1784;-92
2022/01/28 06:23:57;;;;;;;;;;;;;;;4.45;65.77;100966.97;4953542;28;1989;-93
2022/01/28 06:26:23;;;;;;;;;;;;;;;4.44;65.76;100970.63;4964809;28;1806;-92
2022/01/28 06:28:51;;;;;;;;;;;;;;;4.45;65.58;100966.97;4954253;28;2033;-94
2022/01/28 06:31:17;;;;;;;;;;;;;;;4.44;65.64;100968.81;4956022;28;1884;-92
2022/01/28 06:33:43;;;;;;;;;;;;;;;4.44;65.82;100981.28;4965505;28;2615;-91
2022/01/28 06:36:10;;;;;;;;;;;;;;;4.44;65.69;100987.47;4971971;28;2384;-93
2022/01/28 06:38:36;;;;;;;;;;;;;;;4.45;65.88;100996.31;4956894;28;2400;-93
2022/01/28 06:41:03;;;;;;;;;;;;;;;4.42;65.68;100994.81;4961678;28;2017;-92
2022/01/28 06:43:30;;;;;;;;;;;;;;;4.43;65.70;101008.97;4962641;28;1981;-91
2022/01/28 06:45:56;;;;;;;;;;;;;;;4.42;65.67;101001.97;4974427;28;1511;-92
2022/01/28 06:48:22;;;;;;;;;;;;;;;4.43;65.76;101017.78;4957143;28;1845;-93
2022/01/28 06:50:49;;;;;;;;;;;;;;;4.42;65.59;101017.97;4959448;28;1387;-92
2022/01/28 06:53:15;;;;;;;;;;;;;;;4.41;65.91;101011.81;4969516;28;2237;-91
2022/01/28 06:55:42;;;;;;;;;;;;;;;4.44;65.58;101013.28;4968316;28;1184;-91
2022/01/28 06:58:08;;;;;;;;;;;;;;;4.43;65.66;101023.13;4975332;28;1312;-90
2022/01/28 07:00:37;;;;;;;;;;;;;;;4.43;65.68;101031.13;4974355;28;2305;-90
2022/01/28 07:03:03;;;;;;;;;;;;;;;4.45;65.63;101042.47;4958884;28;1910;-91
2022/01/28 07:05:30;;;;;;;;;;;;;;;4.43;65.63;101047.13;4962191;28;1373;-91
2022/01/28 07:07:56;;;;;;;;;;;;;;;4.40;65.63;101042.13;4978424;28;1375;-92
2022/01/28 07:10:23;;;;;;;;;;;;;;;4.40;65.69;101047.47;4974757;28;2139;-89
2022/01/28 07:12:49;;;;;;;;;;;;;;;4.41;65.55;101051.81;4964844;28;1404;-90
2022/01/28 07:15:16;;;;;;;;;;;;;;;4.45;65.36;101049.66;4977464;28;1919;-91
2022/01/28 07:17:42;;;;;;;;;;;;;;;4.44;65.52;101059.50;4979331;28;946;-90
2022/01/28 07:20:09;;;;;;;;;;;;;;;4.41;65.48;101057.16;4974691;28;1830;-91
2022/01/28 07:22:35;;;;;;;;;;;;;;;4.42;65.56;101055.31;4943398;29;1329;-90
2022/01/28 07:25:02;;;;;;;;;;;;;;;4.45;65.39;101076.31;4942891;29;1986;-90
2022/01/28 07:27:28;;;;;;;;;;;;;;;4.45;65.37;101082.50;4959763;29;1116;-91
2022/01/28 07:29:55;;;;;;;;;;;;;;;4.44;65.29;101091.50;4960337;28;1858;-91
2022/01/28 07:32:23;;;;;;;;;;;;;;;4.44;65.20;101090.63;4962153;28;1400;-90
2022/01/28 07:34:49;;;;;;;;;;;;;;;4.46;65.20;101091.31;4961420;28;1269;-90
2022/01/28 07:37:16;;;;;;;;;;;;;;;4.48;65.24;101100.00;4961709;28;1303;-92
2022/01/28 07:39:42;;;;;;;;;;;;;;;4.45;65.41;101101.16;4978006;28;1299;-89
2022/01/28 07:42:09;;;;;;;;;;;;;;;4.41;65.35;101104.31;4959487;28;2098;-90
2022/01/28 07:44:35;;;;;;;;;;;;;;;4.43;65.30;101111.16;4966076;28;1903;-91
2022/01/28 07:47:01;;;;;;;;;;;;;;;4.45;65.38;101108.34;4985983;28;1731;-91
2022/01/28 07:49:28;;;;;;;;;;;;;;;4.47;65.26;101117.84;4963890;28;1690;-91
2022/01/28 07:51:54;;;;;;;;;;;;;;;4.44;65.30;101126.16;4958151;28;2029;-92
2022/01/28 07:54:21;;;;;;;;;;;;;;;4.49;65.29;101131.81;4970306;28;1513;-92
2022/01/28 07:56:52;;;;;;;;;;;;;;;4.46;65.34;101124.16;4982346;28;1248;-92
2022/01/28 07:59:18;;;;;;;;;;;;;;;4.48;65.16;101137.34;4990278;28;1253;-91
2022/01/28 08:01:45;;;;;;;;;;;;;;;4.47;65.07;101146.31;4972643;28;1877;-90
2022/01/28 08:04:11;;;;;;;;;;;;;;;4.49;65.05;101142.50;4981291;28;1969;-90
2022/01/28 08:06:37;;;;;;;;;;;;;;;4.51;65.02;101142.34;4977181;28;1620;-91
2022/01/28 08:09:04;;;;;;;;;;;;;;;4.49;65.19;101147.81;4962733;28;1603;-91
2022/01/28 08:11:30;;;;;;;;;;;;;;;4.48;65.18;101146.16;4977199;28;2321;-90
2022/01/28 08:13:57;;;;;;;;;;;;;;;4.50;65.04;101157.53;4974069;28;1363;-92
2022/01/28 08:16:24;;;;;;;;;;;;;;;4.49;65.15;101153.16;4959758;28;1526;-92
2022/01/28 08:18:50;;;;;;;;;;;;;;;4.48;65.03;101156.84;4977582;28;1185;-90
2022/01/28 08:21:17;;;;;;;;;;;;;;;4.49;65.02;101147.00;4965716;28;1985;-91
2022/01/28 08:23:43;;;;;;;;;;;;;;;4.51;64.94;101143.16;4993230;28;1906;-90
2022/01/28 08:26:11;;;;;;;;;;;;;;;4.52;64.72;101141.34;4994498;28;1360;-90
2022/01/28 08:28:41;;;;;;;;;;;;;;;4.49;64.93;101134.50;4990751;28;1236;-90
2022/01/28 08:31:07;;;;;;;;;;;;;;;4.49;65.00;101149.66;4982831;28;1918;-92
2022/01/28 08:33:34;;;;;;;;;;;;;;;4.47;65.26;101149.00;4989707;28;1204;-90
2022/01/28 08:36:02;;;;;;;;;;;;;;;4.52;64.97;101150.16;4979197;28;1946;-92
2022/01/28 08:38:33;;;;;;;;;;;;;;;4.52;64.88;101162.69;4976486;28;1516;-91
2022/01/28 08:40:59;;;;;;;;;;;;;;;4.56;64.88;101164.03;4959063;28;1803;-91
2022/01/28 08:43:25;;;;;;;;;;;;;;;4.55;64.72;101165.84;4951754;29;1918;-90
2022/01/28 08:45:52;;;;;;;;;;;;;;;4.53;64.86;101167.84;4949773;28;2302;-90
2022/01/28 08:48:18;;;;;;;;;;;;;;;4.54;64.72;101171.34;4955662;28;2407;-90
2022/01/28 08:50:45;;;;;;;;;;;;;;;4.51;64.86;101163.69;4958209;28;2007;-90
2022/01/28 08:53:11;;;;;;;;;;;;;;;4.52;64.76;101158.16;4952815;28;1652;-90
2022/01/28 08:55:38;;;;;;;;;;;;;;;4.53;64.84;101157.19;4941341;29;1063;-91
2022/01/28 08:58:05;;;;;;;;;;;;;;;4.55;64.64;101159.69;4958962;29;883;-91
2022/01/28 09:00:32;;;;;;;;;;;;;;;4.54;64.76;101158.84;4971798;28;1339;-90
2022/01/28 09:02:58;;;;;;;;;;;;;;;4.54;64.75;101171.34;4976845;28;2972;-90
2022/01/28 09:05:25;;;;;;;;;;;;;;;4.56;64.72;101166.69;4958060;28;2403;-91
2022/01/28 09:07:51;;;;;;;;;;;;;;;4.58;64.64;101172.69;4957886;28;2024;-90
2022/01/28 09:10:19;;;;;;;;;;;;;;;4.58;64.74;101166.50;4967260;28;2525;-88
2022/01/28 09:12:49;;;;;;;;;;;;;;;4.53;64.75;101164.38;4981036;28;2481;-91
2022/01/28 09:15:16;;;;;;;;;;;;;;;4.62;64.53;101167.84;4955159;28;1202;-90
2022/01/28 09:17:42;;;;;;;;;;;;;;;4.59;64.62;101163.69;4995714;28;1196;-90
2022/01/28 09:20:09;;;;;;;;;;;;;;;4.57;64.82;101167.53;4979586;28;1845;-91
2022/01/28 09:22:36;;;;;;;;;;;;;;;4.52;64.81;101171.50;4958697;28;1528;-91
2022/01/28 09:25:03;;;;;;;;;;;;;;;4.58;64.71;101178.03;4975746;28;1956;-90
2022/01/28 09:27:29;;;;;;;;;;;;;;;4.58;64.72;101188.69;4975695;28;2882;-92
2022/01/28 09:29:56;;;;;;;;;;;;;;;4.62;64.61;101187.38;4975674;28;1371;-90
2022/01/28 09:32:22;;;;;;;;;;;;;;;4.64;64.34;101196.03;4967409;28;2100;-90
2022/01/28 09:34:49;;;;;;;;;;;;;;;4.62;64.56;101182.03;4959486;28;1396;-91
2022/01/28 09:37:15;;;;;;;;;;;;;;;4.61;64.70;101188.34;4956491;28;1489;-93
2022/01/28 09:39:44;;;;;;;;;;;;;;;4.61;64.67;101184.88;4973585;28;1303;-90
2022/01/28 09:42:12;;;;;;;;;;;;;;;4.64;64.49;101188.03;4959472;28;1788;-90
2022/01/28 09:44:39;;;;;;;;;;;;;;;4.65;64.55;101195.06;4974325;28;1906;-91
2022/01/28 09:47:06;;;;;;;;;;;;;;;4.65;64.51;101188.88;4957669;28;1486;-90
2022/01/28 09:49:32;;;;;;;;;;;;;;;4.63;64.43;101183.69;4975686;28;1194;-91
2022/01/28 09:51:59;;;;;;;;;;;;;;;4.65;64.52;101184.38;4980562;28;1176;-92
2022/01/28 09:54:25;;;;;;;;;;;;;;;4.65;64.73;101186.22;4974745;28;1255;-91
2022/01/28 09:56:52;;;;;;;;;;;;;;;4.65;64.69;101202.22;4958642;28;1719;-92
2022/01/28 09:59:18;;;;;;;;;;;;;;;4.65;64.69;101199.56;4975822;28;1292;-91
2022/01/28 10:01:45;;;;;;;;;;;;;;;4.63;64.66;101201.56;4959175;28;1561;-91
2022/01/28 10:04:13;;;;;;;;;;;;;;;4.69;64.56;101201.72;4952116;28;1902;-91
2022/01/28 10:06:39;;;;;;;;;;;;;;;4.69;64.54;101211.56;4975457;28;1174;-91
2022/01/28 10:09:06;;;;;;;;;;;;;;;4.67;64.82;101210.88;4991504;28;1307;-91
2022/01/28 10:11:32;;;;;;;;;;;;;;;4.67;64.65;101222.38;4958334;28;1675;-91
2022/01/28 10:14:05;;;;;;;;;;;;;;;4.65;64.72;101224.41;4958645;28;1328;-92
2022/01/28 10:16:31;;;;;;;;;;;;;;;4.65;64.70;101240.41;4980000;28;1221;-90
2022/01/28 10:18:58;;;;;;;;;;;;;;;4.72;64.76;101238.75;4983077;28;1409;-92
2022/01/28 10:21:25;;;;;;;;;;;;;;;4.76;64.52;101247.25;4964424;28;1696;-91
2022/01/28 10:23:51;;;;;;;;;;;;;;;4.77;64.57;101244.44;4975485;28;1910;-92
2022/01/28 10:26:18;;;;;;;;;;;;;;;4.74;64.81;101238.59;4975309;28;1226;-91
2022/01/28 10:28:44;;;;;;;;;;;;;;;4.71;64.95;101241.59;4954688;28;1587;-92
2022/01/28 10:31:11;;;;;;;;;;;;;;;4.74;64.70;101239.41;4950851;28;1657;-91
2022/01/28 10:33:37;;;;;;;;;;;;;;;4.78;64.61;101237.25;4959362;28;1230;-91
2022/01/28 10:36:04;;;;;;;;;;;;;;;4.77;64.70;101244.44;4983307;28;1383;-92
2022/01/28 10:38:30;;;;;;;;;;;;;;;4.82;64.56;101243.91;4974789;28;1178;-92
2022/01/28 10:40:57;;;;;;;;;;;;;;;4.83;64.62;101244.78;4953624;29;1614;-92
2022/01/28 10:43:23;;;;;;;;;;;;;;;4.80;64.84;101237.94;4961674;28;1493;-92
2022/01/28 10:45:50;;;;;;;;;;;;;;;4.84;64.63;101241.94;4964874;28;1910;-91
2022/01/28 10:48:16;;;;;;;;;;;;;;;4.85;64.80;101246.25;4963245;28;1221;-91
2022/01/28 10:50:43;;;;;;;;;;;;;;;4.83;64.83;101253.63;4962571;28;1664;-92
2022/01/28 10:53:09;;;;;;;;;;;;;;;4.85;64.72;101254.25;4962907;28;1183;-91
2022/01/28 10:55:36;;;;;;;;;;;;;;;4.91;64.55;101253.63;4979200;28;1676;-92
2022/01/28 10:58:03;;;;;;;;;;;;;;;4.92;64.58;101255.28;4962689;28;1198;-92
2022/01/28 11:00:29;;;;;;;;;;;;;;;4.92;64.66;101254.47;4978626;28;1351;-93
2022/01/28 11:02:56;;;;;;;;;;;;;;;4.94;64.60;101247.97;4960021;28;1172;-91
2022/01/28 11:05:22;;;;;;;;;;;;;;;4.90;64.81;101246.59;4981867;28;1911;-92
2022/01/28 11:07:49;;;;;;;;;;;;;;;4.93;64.81;101242.78;4972644;28;1620;-92
2022/01/28 11:10:15;;;;;;;;;;;;;;;4.94;64.89;101245.28;4967633;28;1879;-92
2022/01/28 11:12:43;;;;;;;;;;;;;;;4.95;64.92;101238.13;4962230;28;1397;-93
2022/01/28 11:15:12;;;;;;;;;;;;;;;4.96;64.93;101242.44;4971288;28;1202;-92
2022/01/28 11:17:40;;;;;;;;;;;;;;;4.99;64.95;101237.59;4995934;28;1552;-90
2022/01/28 11:20:08;;;;;;;;;;;;;;;5.11;64.51;101229.25;4966994;28;2132;-92
2022/01/28 11:22:34;;;;;;;;;;;;;;;5.03;64.76;101218.56;4981631;28;1226;-92
2022/01/28 11:25:01;;;;;;;;;;;;;;;5.11;64.64;101202.56;4981960;28;1969;-92
2022/01/28 11:27:28;;;;;;;;;;;;;;;5.09;64.67;101202.75;4981771;28;1233;-92
2022/01/28 11:29:55;;;;;;;;;;;;;;;5.11;64.73;101194.53;4981701;28;1206;-93
2022/01/28 11:32:21;;;;;;;;;;;;;;;5.14;64.80;101210.22;4964345;28;2054;-94
2022/01/28 11:34:48;;;;;;;;;;;;;;;5.17;64.55;101210.72;4963607;28;1359;-92
2022/01/28 11:37:14;;;;;;;;;;;;;;;5.17;64.47;101210.72;4978588;28;1313;-92
2022/01/28 11:39:45;;;;;;;;;;;;;;;5.16;64.81;101217.06;4967043;28;1314;-92
2022/01/28 11:42:13;;;;;;;;;;;;;;;5.17;64.86;101212.56;4980758;28;1276;-92
2022/01/28 11:44:39;;;;;;;;;;;;;;;5.18;64.74;101222.25;4979809;28;1911;-92
2022/01/28 11:47:06;;;;;;;;;;;;;;;5.14;65.00;101227.06;4958784;29;1219;-92
2022/01/28 11:49:32;;;;;;;;;;;;;;;5.15;64.92;101209.25;4964814;28;1273;-92
2022/01/28 11:51:59;;;;;;;;;;;;;;;5.20;65.04;101207.72;4972363;28;1785;-93
2022/01/28 11:54:25;;;;;;;;;;;;;;;5.20;65.11;101196.19;4984315;28;1372;-93
2022/01/28 11:56:52;;;;;;;;;;;;;;;5.19;65.00;101203.38;4977130;28;1667;-95
2022/01/28 11:59:19;;;;;;;;;;;;;;;5.18;65.08;101199.06;4961760;28;2168;-92
2022/01/28 12:01:45;;;;;;;;;;;;;;;5.23;65.05;101203.88;4976283;28;1745;-92
2022/01/28 12:04:12;;;;;;;;;;;;;;;5.22;65.12;101205.72;4972074;28;1835;-92
2022/01/28 12:06:38;;;;;;;;;;;;;;;5.23;65.00;101202.06;4977118;28;1906;-92
2022/01/28 12:09:05;;;;;;;;;;;;;;;5.27;65.08;101201.72;4977027;28;2140;-92
2022/01/28 12:11:32;;;;;;;;;;;;;;;5.29;65.00;101205.03;4968351;28;1202;-93
2022/01/28 12:14:04;;;;;;;;;;;;;;;5.29;65.11;101205.88;4976729;28;1655;-92
2022/01/28 12:16:32;;;;;;;;;;;;;;;5.28;65.18;101206.88;4984214;28;1284;-91
2022/01/28 12:19:01;;;;;;;;;;;;;;;5.27;65.35;101201.72;4993310;28;1210;-95
2022/01/28 12:21:27;;;;;;;;;;;;;;;5.28;65.32;101211.38;4974194;28;1941;-93
2022/01/28 12:23:54;;;;;;;;;;;;;;;5.30;65.35;101217.41;4960278;28;1565;-93
2022/01/28 12:26:20;;;;;;;;;;;;;;;5.32;65.37;101212.72;4977073;28;1950;-92
2022/01/28 12:28:47;;;;;;;;;;;;;;;5.30;65.20;101202.22;4960635;28;1613;-91
2022/01/28 12:31:14;;;;;;;;;;;;;;;5.33;65.17;101211.72;4960040;28;2614;-94
2022/01/28 12:33:41;;;;;;;;;;;;;;;5.33;65.27;101220.56;4960541;28;1162;-92
2022/01/28 12:36:07;;;;;;;;;;;;;;;5.32;65.47;101218.06;4964759;28;1834;-93
2022/01/28 12:38:34;;;;;;;;;;;;;;;5.31;65.50;101206.53;4976766;28;1301;-92
2022/01/28 12:41:06;;;;;;;;;;;;;;;5.34;65.38;101206.19;4977086;28;1199;-92
2022/01/28 12:43:33;;;;;;;;;;;;;;;5.36;65.23;101190.84;4960450;28;1299;-91
2022/01/28 12:45:59;;;;;;;;;;;;;;;5.35;65.61;101185.66;4954651;28;2006;-92
2022/01/28 12:48:26;;;;;;;;;;;;;;;5.36;65.35;101174.81;4964174;28;1300;-92
2022/01/28 12:50:53;;;;;;;;;;;;;;;5.35;65.39;101178.47;4975812;28;1517;-92
2022/01/28 12:53:20;;;;;;;;;;;;;;;5.37;65.40;101168.47;4960781;28;1186;-93
2022/01/28 12:55:47;;;;;;;;;;;;;;;5.36;65.57;101156.13;4961666;28;1495;-91
2022/01/28 12:58:14;;;;;;;;;;;;;;;5.38;65.40;101148.78;4992740;28;1191;-94
2022/01/28 13:00:41;;;;;;;;;;;;;;;5.37;65.56;101148.94;4977580;28;1576;-92
2022/01/28 13:03:09;;;;;;;;;;;;;;;5.39;65.77;101141.59;4969098;28;1707;-92
2022/01/28 13:05:43;;;;;;;;;;;;;;;5.38;65.56;101153.25;4967171;28;1978;-93
2022/01/28 13:08:28;;;;;;;;;;;;;;;5.40;65.40;101143.25;4957984;28;1585;-93
2022/01/28 13:10:55;;;;;;;;;;;;;;;5.39;65.57;101146.94;4960644;28;1392;-92
2022/01/28 13:13:21;;;;;;;;;;;;;;;5.37;65.46;101141.75;4956058;28;1962;-92
2022/01/28 13:15:48;;;;;;;;;;;;;;;5.37;65.67;101138.25;4970944;28;1752;-93
2022/01/28 13:18:14;;;;;;;;;;;;;;;5.38;65.75;101135.41;4975884;28;1433;-91
2022/01/28 13:20:41;;;;;;;;;;;;;;;5.40;65.77;101121.88;4975776;28;1671;-92
2022/01/28 13:23:08;;;;;;;;;;;;;;;5.40;65.58;101117.34;4959071;28;1573;-91
2022/01/28 13:25:34;;;;;;;;;;;;;;;5.40;65.68;101114.69;4959195;28;1907;-92
2022/01/28 13:28:03;;;;;;;;;;;;;;;5.42;65.94;101107.34;4959732;28;1171;-91
2022/01/28 13:30:33;;;;;;;;;;;;;;;5.42;65.97;101117.19;4960399;28;1653;-93
2022/01/28 13:33:03;;;;;;;;;;;;;;;5.41;65.76;101120.84;4966431;28;1850;-92
2022/01/28 13:35:29;;;;;;;;;;;;;;;5.41;65.97;101113.69;4959900;28;1187;-92
2022/01/28 13:37:57;;;;;;;;;;;;;;;5.41;65.75;101119.03;4960111;28;1218;-91
2022/01/28 13:40:24;;;;;;;;;;;;;;;5.42;65.94;101110.00;4965963;28;1656;-91
2022/01/28 13:42:51;;;;;;;;;;;;;;;5.42;65.99;101117.19;4983265;28;1661;-91
2022/01/28 13:45:17;;;;;;;;;;;;;;;5.43;65.86;101119.69;4968843;28;1910;-91
2022/01/28 13:47:44;;;;;;;;;;;;;;;5.44;66.04;101120.50;4996081;28;1129;-93
2022/01/28 13:50:10;;;;;;;;;;;;;;;5.46;65.81;101121.19;4977746;28;1419;-92
2022/01/28 13:52:47;;;;;;;;;;;;;;;5.42;65.92;101115.34;4977946;28;1430;-92
2022/01/28 13:55:13;;;;;;;;;;;;;;;5.43;65.97;101110.84;4968361;28;1269;-92